sensor_id;sensor_type;location;lat;lon;timestamp;temperature;humidity
3156;DHT22;1588;50.892;7.082;2023-02-01T00:04:12;6.80;99.90
3156;DHT22;1588;50.892;7.082;2023-02-01T00:09:15;6.70;99.90
3156;DHT22;1588;50.892;7.082;2023-02-01T00:14:20;6.60;99.90
3156;DHT22;1588;50.892;7.082;2023-02-01T00:19:30;6.50;99.90
3156;DHT22;1588;50.892;7.082;2023-02-01T00:24:33;6.40;99.90
3156;DHT22;1588;50.892;7.082;2023-02-01T00:29:39;6.40;99.90
3156;DHT22;1588;50.892;7.082;2023-02-01T00:34:46;6.20;99.90
3156;DHT22;1588;50.892;7.082;2023-02-01T00:39:58;6.20;99.90
3156;DHT22;1588;50.892;7.082;2023-02-01T00:45:03;6.20;99.90
3156;DHT22;1588;50.892;7.082;2023-02-01T00:50:09;6.10;99.90
3156;DHT22;1588;50.892;7.082;2023-02-01T00:55:12;6.10;99.90
3156;DHT22;1588;50.892;7.082;2023-02-01T01:00:17;6.20;99.90
3156;DHT22;1588;50.892;7.082;2023-02-01T01:05:20;6.20;99.90
3156;DHT22;1588;50.892;7.082;2023-02-01T01:10:24;6.30;99.90
3156;DHT22;1588;50.892;7.082;2023-02-01T01:15:29;6.20;99.90
3156;DHT22;1588;50.892;7.082;2023-02-01T01:20:34;6.30;99.90
3156;DHT22;1588;50.892;7.082;2023-02-01T01:25:38;6.30;99.90
3156;DHT22;1588;50.892;7.082;2023-02-01T01:30:42;6.30;99.90
3156;DHT22;1588;50.892;7.082;2023-02-01T01:35:44;6.30;99.90
3156;DHT22;1588;50.892;7.082;2023-02-01T01:40:57;6.30;99.90
3156;DHT22;1588;50.892;7.082;2023-02-01T01:46:01;6.30;99.90
3156;DHT22;1588;50.892;7.082;2023-02-01T01:51:10;6.30;99.90
3156;DHT22;1588;50.892;7.082;2023-02-01T01:56:14;6.20;99.90
3156;DHT22;1588;50.892;7.082;2023-02-01T02:01:19;6.30;99.90
3156;DHT22;1588;50.892;7.082;2023-02-01T02:06:30;6.20;99.90
3156;DHT22;1588;50.892;7.082;2023-02-01T02:11:36;6.10;99.90
3156;DHT22;1588;50.892;7.082;2023-02-01T02:22:21;6.00;99.90
3156;DHT22;1588;50.892;7.082;2023-02-01T02:27:40;6.00;99.90
3156;DHT22;1588;50.892;7.082;2023-02-01T02:33:19;6.10;99.90
3156;DHT22;1588;50.892;7.082;2023-02-01T02:38:31;6.10;99.90
3156;DHT22;1588;50.892;7.082;2023-02-01T02:43:44;6.20;99.90
3156;DHT22;1588;50.892;7.082;2023-02-01T02:49:11;6.30;99.90
3156;DHT22;1588;50.892;7.082;2023-02-01T02:54:18;6.30;99.90
3156;DHT22;1588;50.892;7.082;2023-02-01T02:59:40;6.30;99.90
3156;DHT22;1588;50.892;7.082;2023-02-01T03:05:02;6.30;99.90
3156;DHT22;1588;50.892;7.082;2023-02-01T03:10:08;6.30;99.90
3156;DHT22;1588;50.892;7.082;2023-02-01T03:15:13;6.30;99.90
3156;DHT22;1588;50.892;7.082;2023-02-01T03:20:18;6.30;99.90
3156;DHT22;1588;50.892;7.082;2023-02-01T03:25:24;6.30;99.90
3156;DHT22;1588;50.892;7.082;2023-02-01T03:30:31;6.30;99.90
3156;DHT22;1588;50.892;7.082;2023-02-01T03:35:39;6.30;99.90
3156;DHT22;1588;50.892;7.082;2023-02-01T03:40:45;6.30;99.90
3156;DHT22;1588;50.892;7.082;2023-02-01T03:45:52;6.20;99.90
3156;DHT22;1588;50.892;7.082;2023-02-01T03:50:58;6.20;99.90
3156;DHT22;1588;50.892;7.082;2023-02-01T03:56:03;6.30;99.90
3156;DHT22;1588;50.892;7.082;2023-02-01T04:01:06;6.30;99.90
3156;DHT22;1588;50.892;7.082;2023-02-01T04:06:11;6.30;99.90
3156;DHT22;1588;50.892;7.082;2023-02-01T04:11:14;6.20;99.90
3156;DHT22;1588;50.892;7.082;2023-02-01T04:16:16;6.30;99.90
3156;DHT22;1588;50.892;7.082;2023-02-01T04:21:20;6.30;99.90
3156;DHT22;1588;50.892;7.082;2023-02-01T04:26:23;6.30;99.90
3156;DHT22;1588;50.892;7.082;2023-02-01T04:31:26;6.30;99.90
3156;DHT22;1588;50.892;7.082;2023-02-01T04:36:30;6.30;99.90
3156;DHT22;1588;50.892;7.082;2023-02-01T04:41:35;6.30;99.90
3156;DHT22;1588;50.892;7.082;2023-02-01T04:46:37;6.30;99.90
3156;DHT22;1588;50.892;7.082;2023-02-01T04:51:42;6.30;99.90
3156;DHT22;1588;50.892;7.082;2023-02-01T04:56:44;6.30;99.90
3156;DHT22;1588;50.892;7.082;2023-02-01T05:01:47;6.20;99.90
3156;DHT22;1588;50.892;7.082;2023-02-01T05:06:51;6.10;99.90
3156;DHT22;1588;50.892;7.082;2023-02-01T05:11:53;6.10;99.90
3156;DHT22;1588;50.892;7.082;2023-02-01T05:17:28;5.90;99.90
3156;DHT22;1588;50.892;7.082;2023-02-01T05:22:31;5.90;99.90
3156;DHT22;1588;50.892;7.082;2023-02-01T05:27:35;5.80;99.90
3156;DHT22;1588;50.892;7.082;2023-02-01T05:32:37;5.80;99.90
3156;DHT22;1588;50.892;7.082;2023-02-01T05:37:41;5.70;99.90
3156;DHT22;1588;50.892;7.082;2023-02-01T05:42:44;5.60;99.90
3156;DHT22;1588;50.892;7.082;2023-02-01T05:47:46;5.60;99.90
3156;DHT22;1588;50.892;7.082;2023-02-01T05:52:50;5.70;99.90
3156;DHT22;1588;50.892;7.082;2023-02-01T05:57:53;5.70;99.90
3156;DHT22;1588;50.892;7.082;2023-02-01T06:02:55;5.60;99.90
3156;DHT22;1588;50.892;7.082;2023-02-01T06:07:59;5.60;99.90
3156;DHT22;1588;50.892;7.082;2023-02-01T06:13:02;5.70;99.90
3156;DHT22;1588;50.892;7.082;2023-02-01T06:18:05;5.60;99.90
3156;DHT22;1588;50.892;7.082;2023-02-01T06:23:09;5.60;99.90
3156;DHT22;1588;50.892;7.082;2023-02-01T06:28:11;5.70;99.90
3156;DHT22;1588;50.892;7.082;2023-02-01T06:33:14;5.50;99.90
3156;DHT22;1588;50.892;7.082;2023-02-01T06:38:21;5.40;99.90
3156;DHT22;1588;50.892;7.082;2023-02-01T06:43:25;5.40;99.90
3156;DHT22;1588;50.892;7.082;2023-02-01T06:48:27;5.30;99.90
3156;DHT22;1588;50.892;7.082;2023-02-01T06:53:36;5.30;99.90
3156;DHT22;1588;50.892;7.082;2023-02-01T06:58:38;5.30;99.90
3156;DHT22;1588;50.892;7.082;2023-02-01T07:03:47;5.50;99.90
3156;DHT22;1588;50.892;7.082;2023-02-01T07:08:51;5.50;99.90
3156;DHT22;1588;50.892;7.082;2023-02-01T07:13:57;5.70;99.90
3156;DHT22;1588;50.892;7.082;2023-02-01T07:19:00;5.80;99.90
3156;DHT22;1588;50.892;7.082;2023-02-01T07:24:05;5.80;99.90
3156;DHT22;1588;50.892;7.082;2023-02-01T07:29:08;5.90;99.90
3156;DHT22;1588;50.892;7.082;2023-02-01T07:34:10;5.90;99.90
3156;DHT22;1588;50.892;7.082;2023-02-01T07:39:14;5.90;99.90
3156;DHT22;1588;50.892;7.082;2023-02-01T07:44:17;5.90;99.90
3156;DHT22;1588;50.892;7.082;2023-02-01T07:49:23;6.00;99.90
3156;DHT22;1588;50.892;7.082;2023-02-01T07:54:31;6.00;99.90
3156;DHT22;1588;50.892;7.082;2023-02-01T07:59:33;6.10;99.90
3156;DHT22;1588;50.892;7.082;2023-02-01T08:04:39;6.00;99.90
3156;DHT22;1588;50.892;7.082;2023-02-01T08:09:43;6.00;99.90
3156;DHT22;1588;50.892;7.082;2023-02-01T08:14:45;6.10;99.90
3156;DHT22;1588;50.892;7.082;2023-02-01T08:19:47;6.10;99.90
3156;DHT22;1588;50.892;7.082;2023-02-01T08:24:51;6.10;99.90
3156;DHT22;1588;50.892;7.082;2023-02-01T08:30:06;6.10;99.90
3156;DHT22;1588;50.892;7.082;2023-02-01T08:35:10;6.10;99.90
3156;DHT22;1588;50.892;7.082;2023-02-01T08:40:18;6.10;99.90
3156;DHT22;1588;50.892;7.082;2023-02-01T08:45:24;6.10;99.90
3156;DHT22;1588;50.892;7.082;2023-02-01T08:50:29;6.10;99.90
3156;DHT22;1588;50.892;7.082;2023-02-01T08:55:32;6.10;99.90
3156;DHT22;1588;50.892;7.082;2023-02-01T09:00:35;6.20;99.90
3156;DHT22;1588;50.892;7.082;2023-02-01T09:05:37;6.30;99.90
3156;DHT22;1588;50.892;7.082;2023-02-01T09:10:42;6.50;99.90
3156;DHT22;1588;50.892;7.082;2023-02-01T09:15:44;6.60;99.90
3156;DHT22;1588;50.892;7.082;2023-02-01T09:20:47;6.70;99.90
3156;DHT22;1588;50.892;7.082;2023-02-01T09:25:52;6.90;99.90
3156;DHT22;1588;50.892;7.082;2023-02-01T09:30:56;7.40;99.90
3156;DHT22;1588;50.892;7.082;2023-02-01T09:36:00;7.30;99.90
3156;DHT22;1588;50.892;7.082;2023-02-01T09:41:20;7.30;99.90
3156;DHT22;1588;50.892;7.082;2023-02-01T09:46:29;7.40;99.90
3156;DHT22;1588;50.892;7.082;2023-02-01T09:51:37;7.40;99.90
3156;DHT22;1588;50.892;7.082;2023-02-01T09:56:46;7.40;99.90
3156;DHT22;1588;50.892;7.082;2023-02-01T10:01:50;7.50;99.90
3156;DHT22;1588;50.892;7.082;2023-02-01T10:07:05;7.50;99.90
3156;DHT22;1588;50.892;7.082;2023-02-01T10:12:34;7.30;99.90
3156;DHT22;1588;50.892;7.082;2023-02-01T10:17:51;7.30;99.90
3156;DHT22;1588;50.892;7.082;2023-02-01T10:23:07;7.20;99.90
3156;DHT22;1588;50.892;7.082;2023-02-01T10:28:17;7.40;99.90
3156;DHT22;1588;50.892;7.082;2023-02-01T10:33:34;7.70;99.90
3156;DHT22;1588;50.892;7.082;2023-02-01T10:38:37;7.70;99.90
3156;DHT22;1588;50.892;7.082;2023-02-01T10:43:42;7.70;99.90
3156;DHT22;1588;50.892;7.082;2023-02-01T10:48:45;7.90;99.90
3156;DHT22;1588;50.892;7.082;2023-02-01T10:53:54;8.00;99.90
3156;DHT22;1588;50.892;7.082;2023-02-01T10:59:05;7.90;99.90
3156;DHT22;1588;50.892;7.082;2023-02-01T11:04:10;8.00;99.90
3156;DHT22;1588;50.892;7.082;2023-02-01T11:09:19;8.10;99.90
3156;DHT22;1588;50.892;7.082;2023-02-01T11:14:34;8.40;99.90
3156;DHT22;1588;50.892;7.082;2023-02-01T11:19:37;8.60;99.90
3156;DHT22;1588;50.892;7.082;2023-02-01T11:24:41;8.30;99.90
3156;DHT22;1588;50.892;7.082;2023-02-01T11:29:51;8.00;99.90
3156;DHT22;1588;50.892;7.082;2023-02-01T11:34:57;7.80;99.90
3156;DHT22;1588;50.892;7.082;2023-02-01T11:40:03;7.80;99.90
3156;DHT22;1588;50.892;7.082;2023-02-01T11:45:20;7.90;99.90
3156;DHT22;1588;50.892;7.082;2023-02-01T11:50:28;8.10;99.90
3156;DHT22;1588;50.892;7.082;2023-02-01T11:55:55;8.20;99.90
3156;DHT22;1588;50.892;7.082;2023-02-01T12:01:17;7.90;99.90
3156;DHT22;1588;50.892;7.082;2023-02-01T12:06:29;7.90;99.90
3156;DHT22;1588;50.892;7.082;2023-02-01T12:11:55;7.80;99.90
3156;DHT22;1588;50.892;7.082;2023-02-01T12:17:26;7.80;99.90
3156;DHT22;1588;50.892;7.082;2023-02-01T12:22:49;7.80;99.90
3156;DHT22;1588;50.892;7.082;2023-02-01T12:28:29;7.90;99.90
3156;DHT22;1588;50.892;7.082;2023-02-01T12:33:45;7.90;99.90
3156;DHT22;1588;50.892;7.082;2023-02-01T12:39:06;7.90;99.90
3156;DHT22;1588;50.892;7.082;2023-02-01T12:44:20;8.00;99.90
3156;DHT22;1588;50.892;7.082;2023-02-01T12:49:36;8.00;99.90
3156;DHT22;1588;50.892;7.082;2023-02-01T12:54:45;8.00;99.90
3156;DHT22;1588;50.892;7.082;2023-02-01T12:59:53;8.00;99.90
3156;DHT22;1588;50.892;7.082;2023-02-01T13:05:03;8.00;99.90
3156;DHT22;1588;50.892;7.082;2023-02-01T13:10:14;7.90;99.90
3156;DHT22;1588;50.892;7.082;2023-02-01T13:15:30;7.90;99.90
3156;DHT22;1588;50.892;7.082;2023-02-01T13:20:39;7.90;99.90
3156;DHT22;1588;50.892;7.082;2023-02-01T13:25:47;7.90;99.90
3156;DHT22;1588;50.892;7.082;2023-02-01T13:31:02;7.80;99.90
3156;DHT22;1588;50.892;7.082;2023-02-01T13:41:53;7.80;99.90
3156;DHT22;1588;50.892;7.082;2023-02-01T13:47:00;7.80;99.90
3156;DHT22;1588;50.892;7.082;2023-02-01T13:52:05;7.80;99.90
3156;DHT22;1588;50.892;7.082;2023-02-01T13:57:33;7.80;99.90
3156;DHT22;1588;50.892;7.082;2023-02-01T14:02:49;7.80;99.90
3156;DHT22;1588;50.892;7.082;2023-02-01T14:08:11;7.80;99.90
3156;DHT22;1588;50.892;7.082;2023-02-01T14:13:24;7.80;99.90
3156;DHT22;1588;50.892;7.082;2023-02-01T14:18:56;7.80;99.90
3156;DHT22;1588;50.892;7.082;2023-02-01T14:24:15;7.90;99.90
3156;DHT22;1588;50.892;7.082;2023-02-01T14:29:25;7.90;99.90
3156;DHT22;1588;50.892;7.082;2023-02-01T14:34:35;8.00;99.90
3156;DHT22;1588;50.892;7.082;2023-02-01T14:39:53;8.00;99.90
3156;DHT22;1588;50.892;7.082;2023-02-01T14:50:38;8.00;99.90
3156;DHT22;1588;50.892;7.082;2023-02-01T14:55:45;8.10;99.90
3156;DHT22;1588;50.892;7.082;2023-02-01T15:00:52;8.10;99.90
3156;DHT22;1588;50.892;7.082;2023-02-01T15:05:58;8.10;99.90
3156;DHT22;1588;50.892;7.082;2023-02-01T15:11:08;8.20;99.90
3156;DHT22;1588;50.892;7.082;2023-02-01T15:16:14;8.20;99.90
3156;DHT22;1588;50.892;7.082;2023-02-01T15:21:19;8.20;99.90
3156;DHT22;1588;50.892;7.082;2023-02-01T15:26:29;8.20;99.90
3156;DHT22;1588;50.892;7.082;2023-02-01T15:31:41;8.20;99.90
3156;DHT22;1588;50.892;7.082;2023-02-01T15:36:44;8.20;99.90
3156;DHT22;1588;50.892;7.082;2023-02-01T15:41:52;8.20;99.90
3156;DHT22;1588;50.892;7.082;2023-02-01T15:46:55;8.20;99.90
3156;DHT22;1588;50.892;7.082;2023-02-01T15:52:22;8.20;99.90
3156;DHT22;1588;50.892;7.082;2023-02-01T15:57:31;8.20;99.90
3156;DHT22;1588;50.892;7.082;2023-02-01T16:02:41;8.20;99.90
3156;DHT22;1588;50.892;7.082;2023-02-01T16:07:55;8.20;99.90
3156;DHT22;1588;50.892;7.082;2023-02-01T16:13:06;8.10;99.90
3156;DHT22;1588;50.892;7.082;2023-02-01T16:18:10;8.20;99.90
3156;DHT22;1588;50.892;7.082;2023-02-01T16:23:19;8.20;99.90
3156;DHT22;1588;50.892;7.082;2023-02-01T16:28:24;8.10;99.90
3156;DHT22;1588;50.892;7.082;2023-02-01T16:33:27;7.90;99.90
3156;DHT22;1588;50.892;7.082;2023-02-01T16:38:41;7.70;99.90
3156;DHT22;1588;50.892;7.082;2023-02-01T16:43:45;7.50;99.90
3156;DHT22;1588;50.892;7.082;2023-02-01T16:48:54;7.40;99.90
3156;DHT22;1588;50.892;7.082;2023-02-01T16:54:02;7.40;99.90
3156;DHT22;1588;50.892;7.082;2023-02-01T16:59:13;7.30;99.90
3156;DHT22;1588;50.892;7.082;2023-02-01T17:04:16;7.30;99.90
3156;DHT22;1588;50.892;7.082;2023-02-01T17:09:22;7.30;99.90
3156;DHT22;1588;50.892;7.082;2023-02-01T17:14:30;7.30;99.90
3156;DHT22;1588;50.892;7.082;2023-02-01T17:19:33;7.20;99.90
3156;DHT22;1588;50.892;7.082;2023-02-01T17:24:36;7.20;99.90
3156;DHT22;1588;50.892;7.082;2023-02-01T17:29:40;7.10;99.90
3156;DHT22;1588;50.892;7.082;2023-02-01T17:34:49;7.00;99.90
3156;DHT22;1588;50.892;7.082;2023-02-01T17:39:52;7.00;99.90
3156;DHT22;1588;50.892;7.082;2023-02-01T17:45:09;7.00;99.90
3156;DHT22;1588;50.892;7.082;2023-02-01T17:50:19;7.00;99.90
3156;DHT22;1588;50.892;7.082;2023-02-01T17:55:34;6.90;99.90
3156;DHT22;1588;50.892;7.082;2023-02-01T18:00:39;7.00;99.90
3156;DHT22;1588;50.892;7.082;2023-02-01T18:05:42;6.90;99.90
3156;DHT22;1588;50.892;7.082;2023-02-01T18:10:52;7.00;99.90
3156;DHT22;1588;50.892;7.082;2023-02-01T18:16:01;7.00;99.90
3156;DHT22;1588;50.892;7.082;2023-02-01T18:21:08;7.10;99.90
3156;DHT22;1588;50.892;7.082;2023-02-01T18:26:13;7.10;99.90
3156;DHT22;1588;50.892;7.082;2023-02-01T18:31:29;7.10;99.90
3156;DHT22;1588;50.892;7.082;2023-02-01T18:36:32;7.10;99.90
3156;DHT22;1588;50.892;7.082;2023-02-01T18:41:35;7.20;99.90
3156;DHT22;1588;50.892;7.082;2023-02-01T18:46:39;7.20;99.90
3156;DHT22;1588;50.892;7.082;2023-02-01T18:51:42;7.20;99.90
3156;DHT22;1588;50.892;7.082;2023-02-01T18:56:47;7.20;99.90
3156;DHT22;1588;50.892;7.082;2023-02-01T19:01:51;7.30;99.90
3156;DHT22;1588;50.892;7.082;2023-02-01T19:06:54;7.40;99.90
3156;DHT22;1588;50.892;7.082;2023-02-01T19:11:58;7.40;99.90
3156;DHT22;1588;50.892;7.082;2023-02-01T19:17:06;7.40;99.90
3156;DHT22;1588;50.892;7.082;2023-02-01T19:22:09;7.40;99.90
3156;DHT22;1588;50.892;7.082;2023-02-01T19:27:14;7.50;99.90
3156;DHT22;1588;50.892;7.082;2023-02-01T19:32:22;7.40;99.90
3156;DHT22;1588;50.892;7.082;2023-02-01T19:37:25;7.60;99.90
3156;DHT22;1588;50.892;7.082;2023-02-01T19:42:28;7.60;99.90
3156;DHT22;1588;50.892;7.082;2023-02-01T19:47:34;7.60;99.90
3156;DHT22;1588;50.892;7.082;2023-02-01T19:52:37;7.60;99.90
3156;DHT22;1588;50.892;7.082;2023-02-01T19:57:40;7.60;99.90
3156;DHT22;1588;50.892;7.082;2023-02-01T20:02:45;7.60;99.90
3156;DHT22;1588;50.892;7.082;2023-02-01T20:07:48;7.60;99.90
3156;DHT22;1588;50.892;7.082;2023-02-01T20:12:51;7.60;99.90
3156;DHT22;1588;50.892;7.082;2023-02-01T20:17:55;7.60;99.90
3156;DHT22;1588;50.892;7.082;2023-02-01T20:22:57;7.60;99.90
3156;DHT22;1588;50.892;7.082;2023-02-01T20:28:00;7.70;99.90
3156;DHT22;1588;50.892;7.082;2023-02-01T20:33:05;7.70;99.90
3156;DHT22;1588;50.892;7.082;2023-02-01T20:38:10;7.60;99.90
3156;DHT22;1588;50.892;7.082;2023-02-01T20:43:16;7.70;99.90
3156;DHT22;1588;50.892;7.082;2023-02-01T20:48:20;7.70;99.90
3156;DHT22;1588;50.892;7.082;2023-02-01T20:53:23;7.80;99.90
3156;DHT22;1588;50.892;7.082;2023-02-01T20:58:26;7.80;99.90
3156;DHT22;1588;50.892;7.082;2023-02-01T21:03:30;7.80;99.90
3156;DHT22;1588;50.892;7.082;2023-02-01T21:08:38;7.80;99.90
3156;DHT22;1588;50.892;7.082;2023-02-01T21:13:43;7.80;99.90
3156;DHT22;1588;50.892;7.082;2023-02-01T21:18:52;7.80;99.90
3156;DHT22;1588;50.892;7.082;2023-02-01T21:23:55;7.80;99.90
3156;DHT22;1588;50.892;7.082;2023-02-01T21:29:00;7.80;99.90
3156;DHT22;1588;50.892;7.082;2023-02-01T21:34:04;7.80;99.90
3156;DHT22;1588;50.892;7.082;2023-02-01T21:39:09;7.80;99.90
3156;DHT22;1588;50.892;7.082;2023-02-01T21:44:23;7.80;99.90
3156;DHT22;1588;50.892;7.082;2023-02-01T21:49:27;7.70;99.90
3156;DHT22;1588;50.892;7.082;2023-02-01T21:54:30;7.70;99.90
3156;DHT22;1588;50.892;7.082;2023-02-01T21:59:33;7.70;99.90
3156;DHT22;1588;50.892;7.082;2023-02-01T22:04:43;7.70;99.90
3156;DHT22;1588;50.892;7.082;2023-02-01T22:09:46;7.70;99.90
3156;DHT22;1588;50.892;7.082;2023-02-01T22:14:56;7.60;99.90
3156;DHT22;1588;50.892;7.082;2023-02-01T22:20:00;7.70;99.90
3156;DHT22;1588;50.892;7.082;2023-02-01T22:25:03;7.70;99.90
3156;DHT22;1588;50.892;7.082;2023-02-01T22:30:07;7.70;99.90
3156;DHT22;1588;50.892;7.082;2023-02-01T22:35:13;7.70;99.90
3156;DHT22;1588;50.892;7.082;2023-02-01T22:40:17;7.60;99.90
3156;DHT22;1588;50.892;7.082;2023-02-01T22:45:21;7.60;99.90
3156;DHT22;1588;50.892;7.082;2023-02-01T22:50:26;7.70;99.90
3156;DHT22;1588;50.892;7.082;2023-02-01T22:55:30;7.70;99.90
3156;DHT22;1588;50.892;7.082;2023-02-01T23:00:37;7.70;99.90
3156;DHT22;1588;50.892;7.082;2023-02-01T23:05:44;7.60;99.90
3156;DHT22;1588;50.892;7.082;2023-02-01T23:10:47;7.60;99.90
3156;DHT22;1588;50.892;7.082;2023-02-01T23:15:50;7.60;99.90
3156;DHT22;1588;50.892;7.082;2023-02-01T23:20:54;7.60;99.90
3156;DHT22;1588;50.892;7.082;2023-02-01T23:25:57;7.60;99.90
3156;DHT22;1588;50.892;7.082;2023-02-01T23:31:05;7.60;99.90
3156;DHT22;1588;50.892;7.082;2023-02-01T23:36:12;7.60;99.90
3156;DHT22;1588;50.892;7.082;2023-02-01T23:41:19;7.60;99.90
3156;DHT22;1588;50.892;7.082;2023-02-01T23:46:23;7.50;99.90
3156;DHT22;1588;50.892;7.082;2023-02-01T23:51:28;7.50;99.90
3156;DHT22;1588;50.892;7.082;2023-02-01T23:56:33;7.60;99.90
